sensor_id;sensor_type;location;lat;lon;timestamp;P1;durP1;ratioP1;P2;durP2;ratioP2
35225;SDS011;21813;49.686;21.766;2023-05-10T00:01:48;10.35;;;5.55;;
35225;SDS011;21813;49.686;21.766;2023-05-10T00:04:15;8.52;;;5.50;;
35225;SDS011;21813;49.686;21.766;2023-05-10T00:06:40;10.85;;;5.65;;
35225;SDS011;21813;49.686;21.766;2023-05-10T00:09:07;7.55;;;5.40;;
35225;SDS011;21813;49.686;21.766;2023-05-10T00:11:36;7.22;;;4.78;;
35225;SDS011;21813;49.686;21.766;2023-05-10T00:14:03;6.38;;;4.35;;
35225;SDS011;21813;49.686;21.766;2023-05-10T00:16:29;7.90;;;5.32;;
35225;SDS011;21813;49.686;21.766;2023-05-10T00:18:58;7.90;;;5.15;;
35225;SDS011;21813;49.686;21.766;2023-05-10T00:21:23;8.95;;;5.40;;
35225;SDS011;21813;49.686;21.766;2023-05-10T00:23:50;10.23;;;4.97;;
35225;SDS011;21813;49.686;21.766;2023-05-10T00:26:16;8.80;;;5.15;;
35225;SDS011;21813;49.686;21.766;2023-05-10T00:28:46;10.88;;;5.22;;
35225;SDS011;21813;49.686;21.766;2023-05-10T00:31:11;7.63;;;5.22;;
35225;SDS011;21813;49.686;21.766;2023-05-10T00:33:39;11.70;;;5.13;;
35225;SDS011;21813;49.686;21.766;2023-05-10T00:36:05;10.60;;;5.03;;
35225;SDS011;21813;49.686;21.766;2023-05-10T00:38:33;10.45;;;5.32;;
35225;SDS011;21813;49.686;21.766;2023-05-10T00:40:59;8.60;;;5.28;;
35225;SDS011;21813;49.686;21.766;2023-05-10T00:43:35;11.50;;;4.82;;
35225;SDS011;21813;49.686;21.766;2023-05-10T00:46:01;8.32;;;5.47;;
35225;SDS011;21813;49.686;21.766;2023-05-10T00:48:28;6.22;;;4.85;;
35225;SDS011;21813;49.686;21.766;2023-05-10T00:51:07;7.28;;;4.97;;
35225;SDS011;21813;49.686;21.766;2023-05-10T00:53:34;6.10;;;4.88;;
35225;SDS011;21813;49.686;21.766;2023-05-10T00:56:03;8.10;;;4.72;;
35225;SDS011;21813;49.686;21.766;2023-05-10T00:58:29;7.65;;;5.00;;
35225;SDS011;21813;49.686;21.766;2023-05-10T01:00:56;8.85;;;5.32;;
35225;SDS011;21813;49.686;21.766;2023-05-10T01:03:25;7.20;;;4.68;;
35225;SDS011;21813;49.686;21.766;2023-05-10T01:06:00;8.27;;;5.05;;
35225;SDS011;21813;49.686;21.766;2023-05-10T01:08:26;5.45;;;4.68;;
35225;SDS011;21813;49.686;21.766;2023-05-10T01:10:53;7.72;;;5.15;;
35225;SDS011;21813;49.686;21.766;2023-05-10T01:13:32;6.72;;;4.80;;
35225;SDS011;21813;49.686;21.766;2023-05-10T01:16:03;6.47;;;4.53;;
35225;SDS011;21813;49.686;21.766;2023-05-10T01:18:30;8.50;;;4.95;;
35225;SDS011;21813;49.686;21.766;2023-05-10T01:21:05;9.38;;;5.32;;
35225;SDS011;21813;49.686;21.766;2023-05-10T01:37:59;6.72;;;5.25;;
35225;SDS011;21813;49.686;21.766;2023-05-10T01:40:35;6.85;;;4.70;;
35225;SDS011;21813;49.686;21.766;2023-05-10T01:43:13;6.50;;;4.53;;
35225;SDS011;21813;49.686;21.766;2023-05-10T01:46:07;12.60;;;5.22;;
35225;SDS011;21813;49.686;21.766;2023-05-10T01:48:40;5.45;;;4.57;;
35225;SDS011;21813;49.686;21.766;2023-05-10T01:51:18;8.07;;;4.68;;
35225;SDS011;21813;49.686;21.766;2023-05-10T01:53:48;6.97;;;4.70;;
35225;SDS011;21813;49.686;21.766;2023-05-10T01:56:16;7.95;;;4.25;;
35225;SDS011;21813;49.686;21.766;2023-05-10T01:58:44;8.13;;;5.07;;
35225;SDS011;21813;49.686;21.766;2023-05-10T02:01:23;6.70;;;4.28;;
35225;SDS011;21813;49.686;21.766;2023-05-10T02:03:51;5.05;;;4.13;;
35225;SDS011;21813;49.686;21.766;2023-05-10T02:06:19;8.18;;;5.68;;
35225;SDS011;21813;49.686;21.766;2023-05-10T02:08:50;10.93;;;4.90;;
35225;SDS011;21813;49.686;21.766;2023-05-10T02:11:17;5.88;;;4.35;;
35225;SDS011;21813;49.686;21.766;2023-05-10T02:13:53;8.93;;;4.68;;
35225;SDS011;21813;49.686;21.766;2023-05-10T02:16:34;6.70;;;4.80;;
35225;SDS011;21813;49.686;21.766;2023-05-10T02:19:01;7.38;;;4.82;;
35225;SDS011;21813;49.686;21.766;2023-05-10T02:21:29;7.72;;;4.60;;
35225;SDS011;21813;49.686;21.766;2023-05-10T02:24:13;6.40;;;5.22;;
35225;SDS011;21813;49.686;21.766;2023-05-10T02:27:06;9.30;;;4.90;;
35225;SDS011;21813;49.686;21.766;2023-05-10T02:29:35;9.32;;;5.07;;
35225;SDS011;21813;49.686;21.766;2023-05-10T02:32:02;10.35;;;5.10;;
35225;SDS011;21813;49.686;21.766;2023-05-10T02:34:31;10.13;;;5.03;;
35225;SDS011;21813;49.686;21.766;2023-05-10T02:37:00;8.13;;;5.45;;
35225;SDS011;21813;49.686;21.766;2023-05-10T02:39:28;11.98;;;6.55;;
35225;SDS011;21813;49.686;21.766;2023-05-10T02:42:01;11.23;;;5.53;;
35225;SDS011;21813;49.686;21.766;2023-05-10T02:44:40;7.15;;;5.20;;
35225;SDS011;21813;49.686;21.766;2023-05-10T02:47:08;12.80;;;6.28;;
35225;SDS011;21813;49.686;21.766;2023-05-10T02:49:34;9.30;;;5.57;;
35225;SDS011;21813;49.686;21.766;2023-05-10T02:52:00;10.05;;;5.15;;
35225;SDS011;21813;49.686;21.766;2023-05-10T02:54:31;8.23;;;5.20;;
35225;SDS011;21813;49.686;21.766;2023-05-10T02:57:03;14.80;;;6.25;;
35225;SDS011;21813;49.686;21.766;2023-05-10T02:59:32;9.82;;;5.70;;
35225;SDS011;21813;49.686;21.766;2023-05-10T03:01:58;8.63;;;5.30;;
35225;SDS011;21813;49.686;21.766;2023-05-10T03:04:27;10.20;;;6.07;;
35225;SDS011;21813;49.686;21.766;2023-05-10T03:06:52;11.13;;;6.10;;
35225;SDS011;21813;49.686;21.766;2023-05-10T03:09:22;8.93;;;5.63;;
35225;SDS011;21813;49.686;21.766;2023-05-10T03:11:58;14.32;;;5.55;;
35225;SDS011;21813;49.686;21.766;2023-05-10T03:14:53;5.93;;;5.18;;
35225;SDS011;21813;49.686;21.766;2023-05-10T03:20:20;8.50;;;5.47;;
35225;SDS011;21813;49.686;21.766;2023-05-10T03:25:51;12.05;;;5.97;;
35225;SDS011;21813;49.686;21.766;2023-05-10T03:28:17;8.73;;;5.93;;
35225;SDS011;21813;49.686;21.766;2023-05-10T03:30:45;9.25;;;6.50;;
35225;SDS011;21813;49.686;21.766;2023-05-10T03:33:11;8.55;;;6.20;;
35225;SDS011;21813;49.686;21.766;2023-05-10T03:35:41;11.57;;;5.60;;
35225;SDS011;21813;49.686;21.766;2023-05-10T03:38:09;8.43;;;5.68;;
35225;SDS011;21813;49.686;21.766;2023-05-10T03:40:35;10.10;;;6.07;;
35225;SDS011;21813;49.686;21.766;2023-05-10T03:43:00;14.05;;;6.63;;
35225;SDS011;21813;49.686;21.766;2023-05-10T03:45:29;10.57;;;5.97;;
35225;SDS011;21813;49.686;21.766;2023-05-10T03:47:56;9.93;;;6.40;;
35225;SDS011;21813;49.686;21.766;2023-05-10T03:50:28;8.52;;;5.40;;
35225;SDS011;21813;49.686;21.766;2023-05-10T03:52:54;9.93;;;5.97;;
35225;SDS011;21813;49.686;21.766;2023-05-10T03:55:30;10.88;;;5.97;;
35225;SDS011;21813;49.686;21.766;2023-05-10T03:57:59;11.07;;;6.13;;
35225;SDS011;21813;49.686;21.766;2023-05-10T04:00:33;9.30;;;6.10;;
35225;SDS011;21813;49.686;21.766;2023-05-10T04:03:02;10.15;;;6.07;;
35225;SDS011;21813;49.686;21.766;2023-05-10T04:05:30;10.95;;;6.65;;
35225;SDS011;21813;49.686;21.766;2023-05-10T04:07:55;11.80;;;5.85;;
35225;SDS011;21813;49.686;21.766;2023-05-10T04:10:22;10.85;;;5.57;;
35225;SDS011;21813;49.686;21.766;2023-05-10T04:12:47;12.60;;;6.20;;
35225;SDS011;21813;49.686;21.766;2023-05-10T04:15:14;11.60;;;6.75;;
35225;SDS011;21813;49.686;21.766;2023-05-10T04:17:40;9.95;;;5.65;;
35225;SDS011;21813;49.686;21.766;2023-05-10T04:20:06;17.40;;;11.32;;
35225;SDS011;21813;49.686;21.766;2023-05-10T04:22:32;10.23;;;7.40;;
35225;SDS011;21813;49.686;21.766;2023-05-10T04:24:59;14.30;;;7.80;;
35225;SDS011;21813;49.686;21.766;2023-05-10T04:27:37;11.23;;;7.13;;
35225;SDS011;21813;49.686;21.766;2023-05-10T04:30:04;8.02;;;5.68;;
35225;SDS011;21813;49.686;21.766;2023-05-10T04:32:30;12.00;;;6.80;;
35225;SDS011;21813;49.686;21.766;2023-05-10T04:38:17;8.23;;;5.50;;
35225;SDS011;21813;49.686;21.766;2023-05-10T04:40:43;9.88;;;6.53;;
35225;SDS011;21813;49.686;21.766;2023-05-10T04:43:09;16.77;;;9.80;;
35225;SDS011;21813;49.686;21.766;2023-05-10T04:45:35;11.88;;;6.70;;
35225;SDS011;21813;49.686;21.766;2023-05-10T04:48:04;8.13;;;5.13;;
35225;SDS011;21813;49.686;21.766;2023-05-10T04:50:32;8.98;;;4.72;;
35225;SDS011;21813;49.686;21.766;2023-05-10T04:52:57;6.65;;;4.68;;
35225;SDS011;21813;49.686;21.766;2023-05-10T04:55:23;5.85;;;4.75;;
35225;SDS011;21813;49.686;21.766;2023-05-10T04:57:49;7.70;;;4.38;;
35225;SDS011;21813;49.686;21.766;2023-05-10T05:00:15;5.15;;;3.90;;
35225;SDS011;21813;49.686;21.766;2023-05-10T05:02:42;8.25;;;4.32;;
35225;SDS011;21813;49.686;21.766;2023-05-10T05:05:11;7.68;;;4.88;;
35225;SDS011;21813;49.686;21.766;2023-05-10T05:07:37;5.68;;;4.13;;
35225;SDS011;21813;49.686;21.766;2023-05-10T05:10:05;9.80;;;4.35;;
35225;SDS011;21813;49.686;21.766;2023-05-10T05:12:32;7.68;;;3.60;;
35225;SDS011;21813;49.686;21.766;2023-05-10T05:14:59;6.32;;;4.20;;
35225;SDS011;21813;49.686;21.766;2023-05-10T05:17:24;7.43;;;4.07;;
35225;SDS011;21813;49.686;21.766;2023-05-10T05:19:52;8.35;;;4.18;;
35225;SDS011;21813;49.686;21.766;2023-05-10T05:22:35;9.52;;;3.72;;
35225;SDS011;21813;49.686;21.766;2023-05-10T05:25:05;5.93;;;4.28;;
35225;SDS011;21813;49.686;21.766;2023-05-10T05:27:31;6.75;;;3.65;;
35225;SDS011;21813;49.686;21.766;2023-05-10T05:29:57;9.35;;;4.25;;
35225;SDS011;21813;49.686;21.766;2023-05-10T05:32:24;7.13;;;3.83;;
35225;SDS011;21813;49.686;21.766;2023-05-10T05:34:51;9.20;;;3.78;;
35225;SDS011;21813;49.686;21.766;2023-05-10T05:37:26;4.50;;;3.63;;
35225;SDS011;21813;49.686;21.766;2023-05-10T05:39:55;5.63;;;3.50;;
35225;SDS011;21813;49.686;21.766;2023-05-10T05:42:21;7.70;;;4.05;;
35225;SDS011;21813;49.686;21.766;2023-05-10T05:44:47;8.25;;;4.75;;
35225;SDS011;21813;49.686;21.766;2023-05-10T05:47:13;5.50;;;3.35;;
35225;SDS011;21813;49.686;21.766;2023-05-10T05:49:42;4.47;;;3.33;;
35225;SDS011;21813;49.686;21.766;2023-05-10T05:52:12;7.65;;;3.80;;
35225;SDS011;21813;49.686;21.766;2023-05-10T05:54:37;7.72;;;5.07;;
35225;SDS011;21813;49.686;21.766;2023-05-10T05:57:05;4.93;;;3.85;;
35225;SDS011;21813;49.686;21.766;2023-05-10T05:59:30;6.65;;;4.05;;
35225;SDS011;21813;49.686;21.766;2023-05-10T06:01:56;6.03;;;3.65;;
35225;SDS011;21813;49.686;21.766;2023-05-10T06:04:22;6.15;;;3.92;;
35225;SDS011;21813;49.686;21.766;2023-05-10T06:06:48;6.32;;;3.70;;
35225;SDS011;21813;49.686;21.766;2023-05-10T06:09:13;5.05;;;3.55;;
35225;SDS011;21813;49.686;21.766;2023-05-10T06:11:39;4.68;;;3.70;;
35225;SDS011;21813;49.686;21.766;2023-05-10T06:14:08;4.85;;;3.63;;
35225;SDS011;21813;49.686;21.766;2023-05-10T06:16:35;6.18;;;3.70;;
35225;SDS011;21813;49.686;21.766;2023-05-10T06:19:00;5.53;;;3.42;;
35225;SDS011;21813;49.686;21.766;2023-05-10T06:21:27;5.30;;;3.55;;
35225;SDS011;21813;49.686;21.766;2023-05-10T06:23:53;4.35;;;3.42;;
35225;SDS011;21813;49.686;21.766;2023-05-10T06:26:20;4.35;;;3.40;;
35225;SDS011;21813;49.686;21.766;2023-05-10T06:28:49;7.05;;;3.42;;
35225;SDS011;21813;49.686;21.766;2023-05-10T06:31:15;6.55;;;3.70;;
35225;SDS011;21813;49.686;21.766;2023-05-10T06:33:41;6.63;;;3.67;;
35225;SDS011;21813;49.686;21.766;2023-05-10T06:36:08;4.05;;;3.65;;
35225;SDS011;21813;49.686;21.766;2023-05-10T06:38:34;7.38;;;3.53;;
35225;SDS011;21813;49.686;21.766;2023-05-10T06:41:00;5.25;;;3.53;;
35225;SDS011;21813;49.686;21.766;2023-05-10T06:43:26;5.55;;;3.15;;
35225;SDS011;21813;49.686;21.766;2023-05-10T06:45:55;4.13;;;3.13;;
35225;SDS011;21813;49.686;21.766;2023-05-10T06:48:21;4.57;;;3.20;;
35225;SDS011;21813;49.686;21.766;2023-05-10T06:50:54;4.53;;;3.38;;
35225;SDS011;21813;49.686;21.766;2023-05-10T06:53:20;6.38;;;3.83;;
35225;SDS011;21813;49.686;21.766;2023-05-10T06:55:46;5.03;;;3.35;;
35225;SDS011;21813;49.686;21.766;2023-05-10T06:58:51;3.72;;;3.00;;
35225;SDS011;21813;49.686;21.766;2023-05-10T07:01:22;5.07;;;3.28;;
35225;SDS011;21813;49.686;21.766;2023-05-10T07:03:48;3.85;;;3.17;;
35225;SDS011;21813;49.686;21.766;2023-05-10T07:06:14;6.00;;;3.55;;
35225;SDS011;21813;49.686;21.766;2023-05-10T07:08:40;4.43;;;3.05;;
35225;SDS011;21813;49.686;21.766;2023-05-10T07:11:07;3.75;;;2.97;;
35225;SDS011;21813;49.686;21.766;2023-05-10T07:13:33;6.43;;;3.03;;
35225;SDS011;21813;49.686;21.766;2023-05-10T07:15:59;6.72;;;3.13;;
35225;SDS011;21813;49.686;21.766;2023-05-10T07:18:25;3.80;;;2.70;;
35225;SDS011;21813;49.686;21.766;2023-05-10T07:20:52;3.30;;;2.90;;
35225;SDS011;21813;49.686;21.766;2023-05-10T07:23:17;5.90;;;3.25;;
35225;SDS011;21813;49.686;21.766;2023-05-10T07:25:47;6.65;;;2.95;;
35225;SDS011;21813;49.686;21.766;2023-05-10T07:28:14;3.78;;;3.05;;
35225;SDS011;21813;49.686;21.766;2023-05-10T07:30:41;4.93;;;3.13;;
35225;SDS011;21813;49.686;21.766;2023-05-10T07:33:10;5.57;;;2.83;;
35225;SDS011;21813;49.686;21.766;2023-05-10T07:35:38;5.20;;;3.42;;
35225;SDS011;21813;49.686;21.766;2023-05-10T07:38:05;4.13;;;2.95;;
35225;SDS011;21813;49.686;21.766;2023-05-10T07:40:45;3.70;;;2.13;;
35225;SDS011;21813;49.686;21.766;2023-05-10T07:43:12;4.10;;;3.10;;
35225;SDS011;21813;49.686;21.766;2023-05-10T07:45:38;3.80;;;3.15;;
35225;SDS011;21813;49.686;21.766;2023-05-10T07:48:37;4.72;;;3.53;;
35225;SDS011;21813;49.686;21.766;2023-05-10T07:51:24;6.60;;;3.63;;
35225;SDS011;21813;49.686;21.766;2023-05-10T07:53:58;7.47;;;2.92;;
35225;SDS011;21813;49.686;21.766;2023-05-10T07:56:31;5.28;;;2.97;;
35225;SDS011;21813;49.686;21.766;2023-05-10T07:58:59;5.55;;;3.08;;
35225;SDS011;21813;49.686;21.766;2023-05-10T08:01:25;3.10;;;2.85;;
35225;SDS011;21813;49.686;21.766;2023-05-10T08:03:53;9.05;;;3.60;;
35225;SDS011;21813;49.686;21.766;2023-05-10T08:06:18;4.15;;;2.78;;
35225;SDS011;21813;49.686;21.766;2023-05-10T08:08:48;5.43;;;2.75;;
35225;SDS011;21813;49.686;21.766;2023-05-10T08:11:19;6.90;;;2.53;;
35225;SDS011;21813;49.686;21.766;2023-05-10T08:13:47;3.97;;;2.50;;
35225;SDS011;21813;49.686;21.766;2023-05-10T08:16:14;2.75;;;2.55;;
35225;SDS011;21813;49.686;21.766;2023-05-10T08:18:43;3.97;;;2.63;;
35225;SDS011;21813;49.686;21.766;2023-05-10T08:21:09;3.38;;;2.60;;
35225;SDS011;21813;49.686;21.766;2023-05-10T08:23:37;4.30;;;3.20;;
35225;SDS011;21813;49.686;21.766;2023-05-10T08:26:03;5.55;;;3.25;;
35225;SDS011;21813;49.686;21.766;2023-05-10T08:28:29;3.30;;;2.40;;
35225;SDS011;21813;49.686;21.766;2023-05-10T08:30:55;3.10;;;2.67;;
35225;SDS011;21813;49.686;21.766;2023-05-10T08:33:22;3.28;;;2.53;;
35225;SDS011;21813;49.686;21.766;2023-05-10T08:35:48;4.82;;;2.70;;
35225;SDS011;21813;49.686;21.766;2023-05-10T08:38:15;4.30;;;2.30;;
35225;SDS011;21813;49.686;21.766;2023-05-10T08:40:41;5.97;;;2.50;;
35225;SDS011;21813;49.686;21.766;2023-05-10T08:43:10;2.97;;;2.53;;
35225;SDS011;21813;49.686;21.766;2023-05-10T08:45:39;3.78;;;2.10;;
35225;SDS011;21813;49.686;21.766;2023-05-10T08:48:07;2.80;;;2.45;;
35225;SDS011;21813;49.686;21.766;2023-05-10T08:50:36;2.92;;;2.67;;
35225;SDS011;21813;49.686;21.766;2023-05-10T08:53:06;7.55;;;2.95;;
35225;SDS011;21813;49.686;21.766;2023-05-10T08:55:37;3.90;;;2.40;;
35225;SDS011;21813;49.686;21.766;2023-05-10T08:58:04;2.50;;;2.25;;
35225;SDS011;21813;49.686;21.766;2023-05-10T09:00:34;5.90;;;2.17;;
35225;SDS011;21813;49.686;21.766;2023-05-10T09:03:02;3.25;;;2.78;;
35225;SDS011;21813;49.686;21.766;2023-05-10T09:05:29;4.57;;;2.50;;
35225;SDS011;21813;49.686;21.766;2023-05-10T09:07:55;2.55;;;2.33;;
35225;SDS011;21813;49.686;21.766;2023-05-10T09:10:21;4.05;;;2.00;;
35225;SDS011;21813;49.686;21.766;2023-05-10T09:12:51;4.00;;;2.20;;
35225;SDS011;21813;49.686;21.766;2023-05-10T09:15:18;4.93;;;2.50;;
35225;SDS011;21813;49.686;21.766;2023-05-10T09:17:45;3.65;;;2.60;;
35225;SDS011;21813;49.686;21.766;2023-05-10T09:20:12;4.60;;;2.13;;
35225;SDS011;21813;49.686;21.766;2023-05-10T09:22:38;4.93;;;2.97;;
35225;SDS011;21813;49.686;21.766;2023-05-10T09:27:32;2.83;;;2.10;;
35225;SDS011;21813;49.686;21.766;2023-05-10T09:29:58;3.53;;;2.38;;
35225;SDS011;21813;49.686;21.766;2023-05-10T09:32:35;6.32;;;2.92;;
35225;SDS011;21813;49.686;21.766;2023-05-10T09:37:35;3.95;;;2.45;;
35225;SDS011;21813;49.686;21.766;2023-05-10T09:40:04;5.68;;;2.40;;
35225;SDS011;21813;49.686;21.766;2023-05-10T09:42:30;5.53;;;2.50;;
35225;SDS011;21813;49.686;21.766;2023-05-10T09:45:05;6.05;;;2.50;;
35225;SDS011;21813;49.686;21.766;2023-05-10T09:47:33;3.47;;;2.83;;
35225;SDS011;21813;49.686;21.766;2023-05-10T09:50:00;3.83;;;2.38;;
35225;SDS011;21813;49.686;21.766;2023-05-10T09:52:30;4.38;;;2.30;;
35225;SDS011;21813;49.686;21.766;2023-05-10T09:55:10;4.80;;;2.40;;
35225;SDS011;21813;49.686;21.766;2023-05-10T09:57:38;3.53;;;2.35;;
35225;SDS011;21813;49.686;21.766;2023-05-10T10:00:04;5.82;;;2.80;;
35225;SDS011;21813;49.686;21.766;2023-05-10T10:02:31;2.97;;;1.98;;
35225;SDS011;21813;49.686;21.766;2023-05-10T10:04:57;8.15;;;2.38;;
35225;SDS011;21813;49.686;21.766;2023-05-10T10:07:27;2.95;;;2.30;;
35225;SDS011;21813;49.686;21.766;2023-05-10T10:09:53;2.75;;;2.42;;
35225;SDS011;21813;49.686;21.766;2023-05-10T10:12:20;4.47;;;2.20;;
35225;SDS011;21813;49.686;21.766;2023-05-10T10:14:46;8.10;;;2.70;;
35225;SDS011;21813;49.686;21.766;2023-05-10T10:17:13;3.60;;;2.78;;
35225;SDS011;21813;49.686;21.766;2023-05-10T10:19:40;3.75;;;2.30;;
35225;SDS011;21813;49.686;21.766;2023-05-10T10:22:07;3.92;;;2.40;;
35225;SDS011;21813;49.686;21.766;2023-05-10T10:24:35;2.60;;;2.17;;
35225;SDS011;21813;49.686;21.766;2023-05-10T10:27:23;4.05;;;2.13;;
35225;SDS011;21813;49.686;21.766;2023-05-10T10:30:11;3.20;;;2.30;;
35225;SDS011;21813;49.686;21.766;2023-05-10T10:35:50;2.70;;;2.50;;
35225;SDS011;21813;49.686;21.766;2023-05-10T10:38:18;4.10;;;2.20;;
35225;SDS011;21813;49.686;21.766;2023-05-10T10:40:43;3.78;;;2.13;;
35225;SDS011;21813;49.686;21.766;2023-05-10T10:43:25;3.70;;;2.40;;
35225;SDS011;21813;49.686;21.766;2023-05-10T10:46:14;2.78;;;2.58;;
35225;SDS011;21813;49.686;21.766;2023-05-10T10:51:37;4.68;;;2.33;;
35225;SDS011;21813;49.686;21.766;2023-05-10T10:54:10;3.05;;;2.03;;
35225;SDS011;21813;49.686;21.766;2023-05-10T10:56:36;4.10;;;2.30;;
35225;SDS011;21813;49.686;21.766;2023-05-10T10:59:03;8.40;;;2.75;;
35225;SDS011;21813;49.686;21.766;2023-05-10T11:01:34;4.40;;;2.17;;
35225;SDS011;21813;49.686;21.766;2023-05-10T11:06:33;3.38;;;2.40;;
35225;SDS011;21813;49.686;21.766;2023-05-10T11:09:07;5.00;;;2.28;;
35225;SDS011;21813;49.686;21.766;2023-05-10T11:11:54;4.40;;;2.50;;
35225;SDS011;21813;49.686;21.766;2023-05-10T11:14:24;4.00;;;2.67;;
35225;SDS011;21813;49.686;21.766;2023-05-10T11:16:50;3.15;;;2.28;;
35225;SDS011;21813;49.686;21.766;2023-05-10T11:19:17;4.90;;;2.25;;
35225;SDS011;21813;49.686;21.766;2023-05-10T11:21:47;4.85;;;2.38;;
35225;SDS011;21813;49.686;21.766;2023-05-10T11:24:16;14.53;;;3.30;;
35225;SDS011;21813;49.686;21.766;2023-05-10T11:26:43;2.97;;;2.10;;
35225;SDS011;21813;49.686;21.766;2023-05-10T11:29:12;6.03;;;2.00;;
35225;SDS011;21813;49.686;21.766;2023-05-10T11:31:45;5.30;;;2.22;;
35225;SDS011;21813;49.686;21.766;2023-05-10T11:34:22;4.97;;;2.17;;
35225;SDS011;21813;49.686;21.766;2023-05-10T11:36:52;2.67;;;2.20;;
35225;SDS011;21813;49.686;21.766;2023-05-10T11:39:20;4.60;;;1.90;;
35225;SDS011;21813;49.686;21.766;2023-05-10T11:41:49;3.33;;;2.35;;
35225;SDS011;21813;49.686;21.766;2023-05-10T11:44:15;4.82;;;1.70;;
35225;SDS011;21813;49.686;21.766;2023-05-10T11:46:41;2.17;;;1.88;;
35225;SDS011;21813;49.686;21.766;2023-05-10T11:49:08;3.08;;;1.83;;
35225;SDS011;21813;49.686;21.766;2023-05-10T11:51:36;5.82;;;2.22;;
35225;SDS011;21813;49.686;21.766;2023-05-10T11:54:06;2.83;;;2.20;;
35225;SDS011;21813;49.686;21.766;2023-05-10T11:59:04;5.55;;;2.20;;
35225;SDS011;21813;49.686;21.766;2023-05-10T12:01:30;4.88;;;2.30;;
35225;SDS011;21813;49.686;21.766;2023-05-10T12:03:57;5.43;;;2.35;;
35225;SDS011;21813;49.686;21.766;2023-05-10T12:06:28;6.10;;;2.20;;
35225;SDS011;21813;49.686;21.766;2023-05-10T12:08:57;5.25;;;2.20;;
35225;SDS011;21813;49.686;21.766;2023-05-10T12:11:24;5.43;;;2.03;;
35225;SDS011;21813;49.686;21.766;2023-05-10T12:13:54;3.53;;;1.95;;
35225;SDS011;21813;49.686;21.766;2023-05-10T12:16:24;3.53;;;1.90;;
35225;SDS011;21813;49.686;21.766;2023-05-10T12:18:58;5.72;;;2.30;;
35225;SDS011;21813;49.686;21.766;2023-05-10T12:21:25;8.15;;;2.42;;
35225;SDS011;21813;49.686;21.766;2023-05-10T12:23:54;3.42;;;2.10;;
35225;SDS011;21813;49.686;21.766;2023-05-10T12:26:24;2.57;;;2.00;;
35225;SDS011;21813;49.686;21.766;2023-05-10T12:28:55;2.43;;;2.23;;
35225;SDS011;21813;49.686;21.766;2023-05-10T12:31:55;3.13;;;2.10;;
35225;SDS011;21813;49.686;21.766;2023-05-10T12:34:27;2.83;;;2.00;;
35225;SDS011;21813;49.686;21.766;2023-05-10T12:36:59;2.50;;;2.25;;
35225;SDS011;21813;49.686;21.766;2023-05-10T12:39:38;2.13;;;1.92;;
35225;SDS011;21813;49.686;21.766;2023-05-10T12:42:06;5.93;;;2.33;;
35225;SDS011;21813;49.686;21.766;2023-05-10T12:44:33;3.08;;;2.20;;
35225;SDS011;21813;49.686;21.766;2023-05-10T12:46:59;2.38;;;2.03;;
35225;SDS011;21813;49.686;21.766;2023-05-10T12:49:26;4.40;;;2.10;;
35225;SDS011;21813;49.686;21.766;2023-05-10T12:51:52;2.72;;;1.98;;
35225;SDS011;21813;49.686;21.766;2023-05-10T12:54:20;2.70;;;2.20;;
35225;SDS011;21813;49.686;21.766;2023-05-10T12:56:45;5.57;;;2.13;;
35225;SDS011;21813;49.686;21.766;2023-05-10T12:59:11;6.32;;;2.50;;
35225;SDS011;21813;49.686;21.766;2023-05-10T13:01:37;3.67;;;2.63;;
35225;SDS011;21813;49.686;21.766;2023-05-10T13:04:04;3.55;;;2.25;;
35225;SDS011;21813;49.686;21.766;2023-05-10T13:06:30;4.82;;;2.13;;
35225;SDS011;21813;49.686;21.766;2023-05-10T13:08:57;6.85;;;2.35;;
35225;SDS011;21813;49.686;21.766;2023-05-10T13:11:23;3.88;;;2.22;;
35225;SDS011;21813;49.686;21.766;2023-05-10T13:13:49;2.53;;;2.25;;
35225;SDS011;21813;49.686;21.766;2023-05-10T13:16:15;5.38;;;2.22;;
35225;SDS011;21813;49.686;21.766;2023-05-10T13:18:42;2.78;;;2.00;;
35225;SDS011;21813;49.686;21.766;2023-05-10T13:21:08;3.40;;;2.22;;
35225;SDS011;21813;49.686;21.766;2023-05-10T13:23:38;3.25;;;2.00;;
35225;SDS011;21813;49.686;21.766;2023-05-10T13:26:04;4.18;;;2.13;;
35225;SDS011;21813;49.686;21.766;2023-05-10T13:28:31;2.55;;;2.10;;
35225;SDS011;21813;49.686;21.766;2023-05-10T13:30:56;2.97;;;1.95;;
35225;SDS011;21813;49.686;21.766;2023-05-10T13:33:24;2.55;;;2.00;;
35225;SDS011;21813;49.686;21.766;2023-05-10T13:35:50;4.60;;;2.00;;
35225;SDS011;21813;49.686;21.766;2023-05-10T13:38:16;2.50;;;2.20;;
35225;SDS011;21813;49.686;21.766;2023-05-10T13:40:41;2.33;;;1.95;;
35225;SDS011;21813;49.686;21.766;2023-05-10T13:43:08;4.28;;;2.38;;
35225;SDS011;21813;49.686;21.766;2023-05-10T13:45:33;5.15;;;2.10;;
35225;SDS011;21813;49.686;21.766;2023-05-10T13:47:59;4.15;;;2.28;;
35225;SDS011;21813;49.686;21.766;2023-05-10T13:50:25;3.53;;;1.88;;
35225;SDS011;21813;49.686;21.766;2023-05-10T13:52:53;3.80;;;2.22;;
35225;SDS011;21813;49.686;21.766;2023-05-10T13:55:19;4.88;;;2.20;;
35225;SDS011;21813;49.686;21.766;2023-05-10T13:57:46;3.28;;;1.90;;
35225;SDS011;21813;49.686;21.766;2023-05-10T14:00:12;4.70;;;2.67;;
35225;SDS011;21813;49.686;21.766;2023-05-10T14:02:39;4.28;;;2.08;;
35225;SDS011;21813;49.686;21.766;2023-05-10T14:05:05;2.33;;;1.60;;
35225;SDS011;21813;49.686;21.766;2023-05-10T14:07:33;4.40;;;2.30;;
35225;SDS011;21813;49.686;21.766;2023-05-10T14:09:58;5.30;;;2.08;;
35225;SDS011;21813;49.686;21.766;2023-05-10T14:12:26;2.97;;;2.20;;
35225;SDS011;21813;49.686;21.766;2023-05-10T14:14:52;3.45;;;2.00;;
35225;SDS011;21813;49.686;21.766;2023-05-10T14:17:19;2.90;;;2.00;;
35225;SDS011;21813;49.686;21.766;2023-05-10T14:19:45;4.10;;;2.20;;
35225;SDS011;21813;49.686;21.766;2023-05-10T14:22:11;4.90;;;2.53;;
35225;SDS011;21813;49.686;21.766;2023-05-10T14:24:37;2.42;;;1.92;;
35225;SDS011;21813;49.686;21.766;2023-05-10T14:27:04;3.15;;;2.35;;
35225;SDS011;21813;49.686;21.766;2023-05-10T14:29:29;4.88;;;2.17;;
35225;SDS011;21813;49.686;21.766;2023-05-10T14:31:57;5.32;;;2.15;;
35225;SDS011;21813;49.686;21.766;2023-05-10T14:34:22;5.00;;;2.20;;
35225;SDS011;21813;49.686;21.766;2023-05-10T14:36:52;2.53;;;1.92;;
35225;SDS011;21813;49.686;21.766;2023-05-10T14:39:18;3.13;;;1.83;;
35225;SDS011;21813;49.686;21.766;2023-05-10T14:41:46;6.35;;;2.30;;
35225;SDS011;21813;49.686;21.766;2023-05-10T14:44:16;3.35;;;2.30;;
35225;SDS011;21813;49.686;21.766;2023-05-10T14:46:43;11.07;;;2.60;;
35225;SDS011;21813;49.686;21.766;2023-05-10T14:49:09;3.03;;;2.60;;
35225;SDS011;21813;49.686;21.766;2023-05-10T14:51:36;2.88;;;2.10;;
35225;SDS011;21813;49.686;21.766;2023-05-10T14:54:02;2.55;;;2.30;;
35225;SDS011;21813;49.686;21.766;2023-05-10T14:56:30;2.90;;;1.90;;
35225;SDS011;21813;49.686;21.766;2023-05-10T14:58:55;3.97;;;2.10;;
35225;SDS011;21813;49.686;21.766;2023-05-10T15:01:22;5.53;;;2.15;;
35225;SDS011;21813;49.686;21.766;2023-05-10T15:03:48;4.93;;;1.90;;
35225;SDS011;21813;49.686;21.766;2023-05-10T15:06:14;4.90;;;2.45;;
35225;SDS011;21813;49.686;21.766;2023-05-10T15:08:43;5.20;;;2.10;;
35225;SDS011;21813;49.686;21.766;2023-05-10T15:11:10;3.22;;;2.20;;
35225;SDS011;21813;49.686;21.766;2023-05-10T15:13:36;3.70;;;2.53;;
35225;SDS011;21813;49.686;21.766;2023-05-10T15:16:03;5.05;;;2.25;;
35225;SDS011;21813;49.686;21.766;2023-05-10T15:18:32;4.45;;;2.20;;
35225;SDS011;21813;49.686;21.766;2023-05-10T15:20:58;6.40;;;2.78;;
35225;SDS011;21813;49.686;21.766;2023-05-10T15:23:33;3.97;;;2.55;;